Time;durP1;ratioP1;P1;durP2;ratioP2;P2;SDS_P1;SDS_P2;PMS_P1;PMS_P2;Temp;Humidity;BMP_temperature;BMP_pressure;BME280_temperature;BME280_humidity;BME280_pressure;Samples;Min_cycle;Max_cycle;Signal;HPM_P1;HPM_P2
2023/07/20 00:03:30;;;;;;;1.98;1.00;;;;;;;18.36;44.91;99711.97;10380350;28;20056;-79
2023/07/20 00:08:32;;;;;;;2.17;1.05;;;;;;;18.22;45.42;99707.97;10379814;28;20053;-79
2023/07/20 00:13:34;;;;;;;4.60;1.20;;;;;;;18.18;45.43;99711.84;10396106;28;20046;-79
2023/07/20 00:18:36;;;;;;;1.00;0.88;;;;;;;18.19;45.36;99718.84;10395726;28;20053;-79
2023/07/20 00:23:38;;;;;;;2.25;1.05;;;;;;;18.16;45.30;99705.88;10380776;28;20525;-80
2023/07/20 00:28:40;;;;;;;2.65;1.20;;;;;;;18.20;45.33;99711.75;10394729;28;20048;-80
2023/07/20 00:33:43;;;;;;;2.35;1.05;;;;;;;17.95;45.83;99707.06;10395262;28;20052;-80
2023/07/20 00:38:45;;;;;;;2.63;1.20;;;;;;;17.62;46.46;99703.09;10380222;28;20049;-80
2023/07/20 00:43:47;;;;;;;1.00;0.93;;;;;;;17.45;46.75;99704.66;10396010;28;20045;-81
2023/07/20 00:48:49;;;;;;;1.95;0.95;;;;;;;17.37;47.08;99712.44;10396505;28;20059;-81
2023/07/20 00:53:51;;;;;;;1.88;1.27;;;;;;;17.23;47.36;99720.75;10377794;28;20038;-81
2023/07/20 00:58:53;;;;;;;3.20;0.90;;;;;;;17.21;47.41;99714.78;10378374;28;20061;-81
2023/07/20 01:03:55;;;;;;;7.68;1.00;;;;;;;17.17;47.63;99721.31;10378963;28;20053;-80
2023/07/20 01:09:15;;;;;;;1.10;1.00;;;;;;;17.20;48.49;99712.28;10378665;28;20057;-81
2023/07/20 01:14:19;;;;;;;1.52;0.77;;;;;;;17.19;47.87;99703.50;10378189;28;20075;-81
2023/07/20 01:19:22;;;;;;;2.05;0.85;;;;;;;17.19;47.78;99715.88;10348172;28;20042;-80
2023/07/20 01:24:36;;;;;;;1.85;0.85;;;;;;;17.15;47.58;99720.63;10338047;28;20049;-81
2023/07/20 01:30:14;;;;;;;1.95;1.10;;;;;;;17.21;48.76;99716.56;10337892;28;20061;-80
2023/07/20 01:35:18;;;;;;;0.80;0.70;;;;;;;17.35;47.78;99719.69;10352845;28;20046;-79
2023/07/20 01:40:45;;;;;;;1.50;0.98;;;;;;;17.55;48.36;99710.75;10336523;28;20065;-79
2023/07/20 01:45:47;;;;;;;1.30;0.80;;;;;;;17.66;47.15;99718.53;10337431;28;20410;-80
2023/07/20 01:50:49;;;;;;;1.52;1.10;;;;;;;17.54;47.77;99732.06;10318902;28;20089;-80
2023/07/20 01:55:56;;;;;;;2.47;1.08;;;;;;;17.64;48.65;99746.09;10336310;28;20050;-80
2023/07/20 02:00:58;;;;;;;1.95;1.20;;;;;;;17.69;48.42;99736.75;10327989;28;20058;-80
2023/07/20 02:06:00;;;;;;;1.80;1.17;;;;;;;17.89;48.44;99736.75;10341489;28;20074;-81
2023/07/20 02:11:04;;;;;;;1.02;0.90;;;;;;;18.02;48.39;99734.59;10356423;28;20062;-79
2023/07/20 02:16:06;;;;;;;2.35;1.10;;;;;;;18.07;48.55;99727.09;10340932;28;20047;-80
2023/07/20 02:21:08;;;;;;;2.38;1.50;;;;;;;18.10;48.46;99716.19;10342024;28;20050;-80
2023/07/20 02:26:10;;;;;;;1.30;1.00;;;;;;;18.11;48.54;99710.78;10341658;28;20133;-80
2023/07/20 02:31:12;;;;;;;1.92;0.90;;;;;;;17.97;48.27;99713.03;10341033;28;20065;-80
2023/07/20 02:36:16;;;;;;;2.45;1.15;;;;;;;17.76;48.86;99710.59;10339698;28;20081;-80
2023/07/20 02:41:20;;;;;;;2.53;1.05;;;;;;;17.72;49.19;99702.09;10338307;28;20081;-80
2023/07/20 02:46:22;;;;;;;0.93;0.82;;;;;;;17.54;49.28;99708.25;10340683;28;20053;-80
2023/07/20 02:51:24;;;;;;;1.27;0.90;;;;;;;17.39;49.86;99707.84;10373688;28;20038;-80
2023/07/20 02:56:27;;;;;;;1.80;1.10;;;;;;;17.33;49.93;99710.19;10355988;28;20046;-80
2023/07/20 03:01:29;;;;;;;1.98;1.05;;;;;;;17.21;50.16;99712.13;10339985;28;20113;-80
2023/07/20 03:06:31;;;;;;;1.67;1.00;;;;;;;17.03;50.55;99714.63;10319266;28;20065;-79
2023/07/20 03:11:34;;;;;;;1.63;1.20;;;;;;;16.98;50.70;99710.72;10350186;28;20046;-80
2023/07/20 03:16:36;;;;;;;1.52;1.15;;;;;;;16.74;51.07;99715.53;10332747;28;20046;-80
2023/07/20 03:21:40;;;;;;;1.88;1.05;;;;;;;16.69;51.00;99715.13;10338377;28;20049;-80
2023/07/20 03:26:42;;;;;;;2.25;1.33;;;;;;;16.63;51.28;99726.25;10358324;28;20104;-79
2023/07/20 03:31:45;;;;;;;2.15;1.17;;;;;;;16.50;51.38;99737.03;10342841;28;20046;-78
2023/07/20 03:36:47;;;;;;;2.08;1.10;;;;;;;16.36;51.36;99734.72;10358164;28;20069;-79
2023/07/20 03:41:49;;;;;;;7.60;1.10;;;;;;;16.26;51.56;99731.22;10341286;28;20450;-80
2023/07/20 03:46:51;;;;;;;4.10;1.00;;;;;;;16.18;51.67;99737.13;10341531;28;20419;-80
2023/07/20 03:51:54;;;;;;;1.15;0.90;;;;;;;16.26;51.61;99733.84;10373256;28;20425;-79
2023/07/20 03:56:56;;;;;;;1.88;1.17;;;;;;;16.25;51.58;99737.44;10339805;28;20038;-80
2023/07/20 04:01:58;;;;;;;2.67;1.10;;;;;;;16.28;51.40;99741.63;10338398;28;20053;-80
2023/07/20 04:07:00;;;;;;;1.67;1.00;;;;;;;16.19;51.53;99738.81;10340891;28;20042;-79
2023/07/20 04:12:02;;;;;;;1.88;1.48;;;;;;;16.21;51.48;99746.59;10339864;28;21085;-80
2023/07/20 04:17:05;;;;;;;2.42;1.50;;;;;;;16.20;51.64;99750.22;10338805;28;20053;-79
2023/07/20 04:22:07;;;;;;;1.40;0.98;;;;;;;16.29;51.24;99744.13;10355098;28;20053;-79
2023/07/20 04:27:10;;;;;;;2.20;1.20;;;;;;;16.48;51.09;99744.25;10338690;28;20526;-79
2023/07/20 04:32:12;;;;;;;3.83;1.20;;;;;;;17.59;49.61;99746.53;10337223;28;20041;-79
2023/07/20 04:37:15;;;;;;;1.55;1.00;;;;;;;18.16;48.60;99734.97;10353734;28;20479;-79
2023/07/20 04:42:17;;;;;;;1.33;1.13;;;;;;;19.99;45.90;99740.78;10354917;28;20049;-79
2023/07/20 04:47:19;;;;;;;1.00;0.90;;;;;;;20.51;44.49;99745.06;10323335;28;20057;-79
2023/07/20 04:52:23;;;;;;;2.15;1.08;;;;;;;19.16;45.98;99752.66;10338836;28;20061;-79
2023/07/20 04:57:43;;;;;;;1.63;1.02;;;;;;;18.51;46.86;99748.41;10340128;28;20510;-79
2023/07/20 05:02:47;;;;;;;1.38;0.98;;;;;;;18.16;47.17;99750.03;10334167;28;21000;-79
2023/07/20 05:07:50;;;;;;;4.13;1.38;;;;;;;18.14;47.34;99746.69;10320090;28;20107;-79
2023/07/20 05:12:52;;;;;;;2.30;1.10;;;;;;;19.73;45.02;99743.38;10336195;28;20041;-79
2023/07/20 05:17:54;;;;;;;1.55;1.20;;;;;;;19.32;45.38;99750.16;10351412;28;20498;-79
2023/07/20 05:22:59;;;;;;;2.20;0.90;;;;;;;19.51;45.16;99748.34;10351874;28;20050;-79
2023/07/20 05:28:02;;;;;;;2.03;1.02;;;;;;;20.00;44.53;99750.41;10337190;28;20499;-80
2023/07/20 05:33:04;;;;;;;1.45;0.98;;;;;;;19.46;45.23;99746.97;10334072;28;20082;-80
2023/07/20 05:38:06;;;;;;;2.17;1.27;;;;;;;19.22;45.49;99749.41;10336218;28;20053;-80
2023/07/20 05:43:08;;;;;;;2.55;1.10;;;;;;;19.12;45.40;99747.78;10333341;28;20084;-80
2023/07/20 05:48:11;;;;;;;1.80;1.10;;;;;;;19.03;45.56;99751.38;10320441;28;20057;-80
2023/07/20 05:53:13;;;;;;;1.67;1.02;;;;;;;18.99;45.70;99763.22;10349016;28;20052;-81
2023/07/20 05:58:15;;;;;;;0.80;0.68;;;;;;;18.90;46.22;99759.63;10349963;28;20788;-80
2023/07/20 06:03:17;;;;;;;1.92;1.00;;;;;;;18.93;46.28;99764.63;10351534;28;20049;-80
2023/07/20 06:08:46;;;;;;;3.30;1.10;;;;;;;18.94;46.57;99776.91;10331824;28;20085;-81
2023/07/20 06:13:48;;;;;;;1.85;1.00;;;;;;;19.22;45.64;99770.63;10351640;28;20400;-80
2023/07/20 06:18:51;;;;;;;2.58;1.10;;;;;;;19.33;45.53;99778.34;10348354;28;20061;-79
2023/07/20 06:23:53;;;;;;;0.95;0.77;;;;;;;19.58;45.54;99767.97;10352127;28;20054;-80
2023/07/20 06:28:56;;;;;;;1.10;0.80;;;;;;;19.75;45.15;99773.25;10318313;28;20093;-79
2023/07/20 06:33:58;;;;;;;0.85;0.85;;;;;;;19.76;45.35;99780.25;10332991;28;20046;-79
2023/07/20 06:39:02;;;;;;;0.95;0.82;;;;;;;19.88;45.16;99779.03;10366437;28;20124;-79
2023/07/20 06:44:07;;;;;;;3.25;1.00;;;;;;;19.88;44.94;99779.03;10351079;28;20699;-79
2023/07/20 06:49:10;;;;;;;0.85;0.85;;;;;;;19.86;44.88;99774.88;10349446;28;20060;-78
2023/07/20 06:54:15;;;;;;;1.23;0.70;;;;;;;20.26;44.55;99775.13;10348269;28;20069;-78
2023/07/20 06:59:17;;;;;;;2.22;1.20;;;;;;;20.70;44.02;99782.03;10339202;28;20053;-78
2023/07/20 07:04:19;;;;;;;1.50;0.85;;;;;;;20.83;43.71;99771.78;10367443;28;20068;-78
2023/07/20 07:09:22;;;;;;;1.75;1.17;;;;;;;21.20;43.39;99767.91;10351782;28;20045;-79
2023/07/20 07:14:24;;;;;;;2.53;0.88;;;;;;;21.27;42.87;99774.25;10372092;28;21104;-79
2023/07/20 07:19:29;;;;;;;1.65;0.80;;;;;;;21.06;43.29;99775.53;10359487;28;20050;-79
2023/07/20 07:24:33;;;;;;;2.50;1.27;;;;;;;20.87;43.31;99769.63;10341079;28;20079;-79
2023/07/20 07:29:36;;;;;;;4.05;1.23;;;;;;;20.71;43.85;99775.75;10349193;28;20052;-81
2023/07/20 07:34:38;;;;;;;2.88;1.30;;;;;;;21.07;43.26;99773.69;10325493;28;20113;-80
2023/07/20 07:39:41;;;;;;;3.92;1.42;;;;;;;21.27;42.88;99779.56;10327221;28;20510;-78
2023/07/20 07:44:44;;;;;;;3.10;1.48;;;;;;;20.93;43.32;99788.44;10326323;28;20050;-80
2023/07/20 07:49:46;;;;;;;1.67;1.20;;;;;;;21.02;43.39;99781.34;10324460;28;20062;-80
2023/07/20 07:54:48;;;;;;;3.25;1.30;;;;;;;22.15;41.94;99781.50;10355903;28;20037;-79
2023/07/20 07:59:50;;;;;;;1.83;1.17;;;;;;;23.92;39.62;99769.94;10325143;28;20403;-80
2023/07/20 08:04:52;;;;;;;3.80;1.20;;;;;;;23.92;39.11;99764.59;10353908;28;20050;-80
2023/07/20 08:09:54;;;;;;;3.33;1.40;;;;;;;23.23;39.69;99777.09;10337991;28;20646;-80
2023/07/20 08:14:56;;;;;;;2.10;1.20;;;;;;;22.54;40.14;99793.03;10323678;28;20108;-79
2023/07/20 08:19:59;;;;;;;2.33;0.98;;;;;;;23.31;39.22;99784.19;10340820;28;20058;-80
2023/07/20 08:25:01;;;;;;;2.45;1.00;;;;;;;24.21;38.25;99788.72;10355610;28;20041;-80
2023/07/20 08:30:04;;;;;;;1.10;0.90;;;;;;;23.14;39.19;99796.00;10352297;28;20034;-79
2023/07/20 08:35:06;;;;;;;3.08;1.00;;;;;;;22.79;39.25;99794.66;10339370;28;20050;-80
2023/07/20 08:40:09;;;;;;;2.80;1.50;;;;;;;23.95;38.10;99794.44;10340925;28;20096;-80
2023/07/20 08:45:13;;;;;;;1.48;0.98;;;;;;;24.41;37.43;99783.69;10356409;28;20049;-80
2023/07/20 08:50:16;;;;;;;1.98;0.90;;;;;;;24.15;37.40;99792.94;10356192;28;20041;-80
2023/07/20 08:55:23;;;;;;;2.58;1.00;;;;;;;24.29;37.09;99789.47;10340513;28;20495;-80
2023/07/20 09:00:26;;;;;;;0.93;0.80;;;;;;;24.03;37.13;99802.38;10324257;28;20052;-80
2023/07/20 09:05:28;;;;;;;1.33;1.00;;;;;;;23.91;36.71;99793.13;10338755;28;20399;-80
2023/07/20 09:10:31;;;;;;;0.55;0.50;;;;;;;25.15;34.25;99783.44;10355768;28;20487;-80
2023/07/20 09:15:33;;;;;;;1.30;0.80;;;;;;;24.90;34.30;99787.44;10337736;28;20050;-80
2023/07/20 09:20:36;;;;;;;0.65;0.65;;;;;;;25.38;33.84;99794.84;10339382;28;20058;-80
2023/07/20 09:25:38;;;;;;;0.80;0.70;;;;;;;24.40;34.18;99790.84;10355050;28;20038;-79
2023/07/20 09:30:40;;;;;;;0.68;0.60;;;;;;;24.25;34.26;99798.03;10355780;28;20061;-79
2023/07/20 09:35:43;;;;;;;1.13;0.82;;;;;;;24.15;34.63;99798.28;10354214;28;20108;-80
2023/07/20 09:40:56;;;;;;;1.38;0.63;;;;;;;25.46;32.86;99783.19;10354088;28;20919;-80
2023/07/20 09:46:01;;;;;;;2.05;0.80;;;;;;;26.57;31.35;99776.06;10354350;28;20521;-80
2023/07/20 09:51:06;;;;;;;1.75;0.82;;;;;;;27.21;30.83;99772.06;10351050;28;20046;-80
2023/07/20 09:56:11;;;;;;;0.75;0.70;;;;;;;27.16;30.42;99784.41;10334941;28;20414;-80
2023/07/20 10:01:16;;;;;;;1.45;0.70;;;;;;;25.33;31.98;99783.84;10337717;28;20050;-80
2023/07/20 10:06:23;;;;;;;1.02;0.80;;;;;;;25.05;32.37;99777.56;10336389;28;20042;-80
2023/07/20 10:11:29;;;;;;;1.38;0.80;;;;;;;25.89;30.71;99772.25;10353225;28;20052;-80
2023/07/20 10:16:36;;;;;;;0.60;0.60;;;;;;;26.05;30.14;99756.94;10352520;28;20581;-80
2023/07/20 10:21:42;;;;;;;2.00;0.90;;;;;;;26.26;30.12;99752.34;10352368;28;20080;-80
2023/07/20 10:26:45;;;;;;;1.10;0.85;;;;;;;25.39;31.52;99750.97;10336016;28;20053;-80
2023/07/20 10:31:48;;;;;;;0.63;0.57;;;;;;;25.45;31.16;99754.72;10336795;28;20483;-80
2023/07/20 10:36:52;;;;;;;1.23;0.82;;;;;;;25.98;29.94;99738.13;10352279;28;20058;-80
2023/07/20 10:42:10;;;;;;;0.75;0.60;;;;;;;26.41;28.04;99736.13;10336064;28;20506;-80
2023/07/20 10:53:58;;;;;;;1.42;0.75;;;;;;;25.92;28.45;99714.75;10352796;28;20045;-80
2023/07/20 10:59:16;;;;;;;0.85;0.70;;;;;;;25.39;29.93;99716.19;10335683;28;20062;-80
2023/07/20 11:04:19;;;;;;;0.70;0.70;;;;;;;26.00;29.10;99716.53;10335632;28;20065;-79
2023/07/20 11:09:25;;;;;;;1.30;0.77;;;;;;;26.02;29.06;99714.47;10319074;28;20054;-80
2023/07/20 11:14:28;;;;;;;0.77;0.68;;;;;;;26.60;28.90;99714.84;10334978;28;20042;-80
2023/07/20 11:19:30;;;;;;;0.82;0.63;;;;;;;26.49;28.70;99710.00;10336119;28;20057;-80
2023/07/20 11:24:39;;;;;;;0.68;0.63;;;;;;;26.29;28.45;99710.91;10351080;28;20091;-80
2023/07/20 11:29:41;;;;;;;1.23;0.70;;;;;;;25.75;29.02;99708.84;10335305;28;20077;-80
2023/07/20 11:34:47;;;;;;;0.45;0.40;;;;;;;25.64;28.22;99705.91;10350184;28;20523;-80
2023/07/20 11:39:56;;;;;;;0.60;0.60;;;;;;;26.04;27.84;99702.50;10335269;28;20108;-80
2023/07/20 11:45:00;;;;;;;0.57;0.57;;;;;;;25.89;28.46;99693.72;10340377;28;20054;-80
2023/07/20 11:50:28;;;;;;;19.95;1.90;;;;;;;25.75;28.01;99681.28;10342025;28;20160;-80
2023/07/20 11:55:31;;;;;;;0.50;0.50;;;;;;;25.37;28.74;99674.53;10357227;28;20542;-80
2023/07/20 12:00:34;;;;;;;0.73;0.70;;;;;;;25.61;28.53;99682.19;10323512;28;20108;-80
2023/07/20 12:05:39;;;;;;;4.38;0.85;;;;;;;26.10;28.21;99671.44;10339865;28;20049;-80
2023/07/20 12:11:02;;;;;;;0.70;0.68;;;;;;;26.22;28.11;99667.16;10336779;28;20052;-81
2023/07/20 12:16:26;;;;;;;0.85;0.60;;;;;;;26.08;27.16;99666.25;10349968;28;20046;-81
2023/07/20 12:21:32;;;;;;;0.60;0.60;;;;;;;25.92;27.87;99663.84;10320132;28;20064;-80
2023/07/20 12:26:36;;;;;;;0.80;0.70;;;;;;;25.94;28.02;99663.69;10352990;28;20045;-81
2023/07/20 12:31:40;;;;;;;2.15;0.93;;;;;;;26.00;28.02;99646.84;10334989;28;20049;-81
2023/07/20 12:36:46;;;;;;;1.02;0.75;;;;;;;26.18;27.92;99655.19;10334080;28;20081;-81
2023/07/20 12:41:48;;;;;;;2.17;0.93;;;;;;;26.03;28.20;99662.50;10348659;28;20041;-80
2023/07/20 12:46:51;;;;;;;0.60;0.60;;;;;;;25.92;28.03;99653.97;10346456;28;20052;-79
2023/07/20 12:51:54;;;;;;;0.70;0.70;;;;;;;25.90;28.24;99658.69;10348832;28;20078;-79
2023/07/20 12:56:59;;;;;;;0.60;0.60;;;;;;;26.36;27.91;99658.16;10351902;28;20045;-79
2023/07/20 13:02:05;;;;;;;0.35;0.35;;;;;;;26.76;27.56;99651.94;10332084;28;20034;-79
2023/07/20 13:07:12;;;;;;;1.80;0.65;;;;;;;27.31;26.65;99642.75;10351613;28;20038;-79
2023/07/20 13:12:17;;;;;;;1.30;0.70;;;;;;;27.27;27.16;99641.53;10342852;28;20120;-79
2023/07/20 13:17:20;;;;;;;0.73;0.70;;;;;;;27.30;26.72;99636.56;10366000;28;20053;-79
2023/07/20 13:22:23;;;;;;;0.85;0.70;;;;;;;27.20;26.51;99649.56;10342669;28;20046;-79
2023/07/20 13:27:27;;;;;;;2.25;0.70;;;;;;;27.09;26.92;99638.59;10335612;28;20041;-79
2023/07/20 13:32:30;;;;;;;0.95;0.80;;;;;;;26.65;26.39;99639.09;10299149;28;20581;-79
2023/07/20 13:37:36;;;;;;;1.08;0.70;;;;;;;26.56;26.87;99640.31;10344863;28;20037;-79
2023/07/20 13:42:40;;;;;;;2.05;0.80;;;;;;;26.46;27.19;99637.16;10347690;28;20050;-79
2023/07/20 13:47:43;;;;;;;3.40;0.80;;;;;;;26.53;26.99;99638.81;10350268;28;20404;-79
2023/07/20 13:52:52;;;;;;;3.20;1.08;;;;;;;26.23;27.28;99625.91;10334554;28;20059;-80
2023/07/20 13:58:16;;;;;;;1.38;0.85;;;;;;;26.34;27.64;99628.03;10335644;28;20048;-80
2023/07/20 14:03:19;;;;;;;0.57;0.52;;;;;;;26.54;27.29;99623.56;10350477;28;20514;-80
2023/07/20 14:08:22;;;;;;;1.95;0.68;;;;;;;26.89;27.30;99613.56;10350432;28;20053;-80
2023/07/20 14:13:24;;;;;;;0.82;0.65;;;;;;;27.17;27.03;99615.09;10348443;28;20136;-81
2023/07/20 14:18:47;;;;;;;0.73;0.70;;;;;;;27.35;26.73;99603.72;10334637;28;20169;-81
2023/07/20 14:23:55;;;;;;;1.50;0.88;;;;;;;27.17;26.88;99607.03;10331632;28;20046;-82
2023/07/20 14:28:57;;;;;;;1.13;0.70;;;;;;;27.04;26.76;99600.78;10315786;28;21073;-81
2023/07/20 14:34:01;;;;;;;0.60;0.60;;;;;;;27.26;26.79;99607.66;10330428;28;20068;-80
2023/07/20 14:39:05;;;;;;;1.77;0.70;;;;;;;26.99;26.84;99595.22;10332680;28;20423;-81
2023/07/20 14:44:33;;;;;;;0.63;0.57;;;;;;;26.67;26.48;99594.94;10347127;28;20442;-81
2023/07/20 14:49:36;;;;;;;0.90;0.68;;;;;;;26.64;26.74;99583.81;10332174;28;20050;-81
2023/07/20 14:54:39;;;;;;;0.60;0.60;;;;;;;26.69;26.47;99586.69;10346361;28;20096;-81
2023/07/20 14:59:41;;;;;;;1.38;0.80;;;;;;;26.50;26.62;99584.78;10349128;28;20299;-81
2023/07/20 15:04:51;;;;;;;0.70;0.70;;;;;;;26.37;26.38;99574.00;10323110;28;20791;-80
2023/07/20 15:09:54;;;;;;;0.70;0.70;;;;;;;26.29;27.04;99571.50;10326488;28;20530;-80
2023/07/20 15:15:11;;;;;;;1.73;0.88;;;;;;;26.30;26.97;99578.53;10330152;28;20073;-80
2023/07/20 15:20:16;;;;;;;0.95;0.70;;;;;;;26.20;27.06;99586.13;10354714;28;20038;-80
2023/07/20 15:25:22;;;;;;;1.00;0.70;;;;;;;26.07;27.50;99570.81;10356271;28;20054;-79
2023/07/20 15:30:27;;;;;;;0.57;0.57;;;;;;;26.59;27.20;99570.16;10352893;28;20054;-80
2023/07/20 15:35:33;;;;;;;2.15;0.75;;;;;;;26.63;27.28;99564.19;10324791;28;20396;-80
2023/07/20 15:40:37;;;;;;;0.77;0.70;;;;;;;26.69;27.39;99554.50;10321783;28;20119;-80
2023/07/20 15:45:40;;;;;;;0.70;0.50;;;;;;;26.58;27.48;99565.84;10341281;28;20042;-80
2023/07/20 15:50:46;;;;;;;0.88;0.73;;;;;;;26.13;28.15;99561.13;10354735;28;20684;-80
2023/07/20 15:55:56;;;;;;;1.85;0.80;;;;;;;25.78;28.04;99563.81;10357775;28;20131;-80
2023/07/20 16:00:59;;;;;;;0.85;0.82;;;;;;;25.48;28.56;99553.53;10338860;28;20060;-80
2023/07/20 16:06:03;;;;;;;0.88;0.70;;;;;;;25.55;28.84;99549.06;10326296;28;20137;-80
2023/07/20 16:11:06;;;;;;;1.00;0.75;;;;;;;25.45;28.65;99546.72;10332633;28;20052;-79
2023/07/20 16:16:09;;;;;;;0.82;0.60;;;;;;;25.43;29.10;99535.38;10337632;28;20081;-79
2023/07/20 16:21:13;;;;;;;1.45;1.00;;;;;;;25.48;28.83;99540.97;10332561;28;20062;-80
2023/07/20 16:26:15;;;;;;;1.20;0.90;;;;;;;25.38;29.23;99527.13;10370728;28;20041;-79
2023/07/20 16:31:19;;;;;;;0.85;0.80;;;;;;;25.48;28.44;99530.28;10365533;28;20059;-80
2023/07/20 16:36:26;;;;;;;1.10;1.00;;;;;;;25.95;28.01;99523.28;10358340;28;20220;-81
2023/07/20 16:41:31;;;;;;;1.88;0.70;;;;;;;26.42;27.85;99526.78;10339037;28;20067;-81
2023/07/20 16:46:39;;;;;;;1.63;0.90;;;;;;;26.47;27.96;99520.78;10354710;28;20046;-80
2023/07/20 16:51:46;;;;;;;1.50;0.80;;;;;;;26.14;28.16;99517.22;10351662;28;20053;-80
2023/07/20 16:56:51;;;;;;;1.35;0.80;;;;;;;25.57;28.58;99523.72;10337882;28;20054;-81
2023/07/20 17:01:54;;;;;;;0.65;0.63;;;;;;;25.29;28.80;99517.53;10318740;28;20163;-80
2023/07/20 17:06:58;;;;;;;0.60;0.60;;;;;;;24.90;29.17;99517.25;10336255;28;20127;-81
2023/07/20 17:12:02;;;;;;;0.75;0.60;;;;;;;24.58;29.31;99528.44;10331735;28;21034;-81
2023/07/20 17:17:05;;;;;;;0.82;0.82;;;;;;;24.25;29.88;99523.59;10351891;28;20146;-82
2023/07/20 17:22:07;;;;;;;0.90;0.70;;;;;;;23.86;30.31;99520.41;10350310;28;20050;-80
2023/07/20 17:27:11;;;;;;;1.08;0.80;;;;;;;24.12;30.44;99517.28;10335567;28;20045;-80
2023/07/20 17:32:18;;;;;;;0.88;0.82;;;;;;;23.97;30.61;99522.59;10346412;28;20121;-80
2023/07/20 17:37:22;;;;;;;0.55;0.55;;;;;;;23.88;30.46;99526.38;10350238;28;20160;-79
2023/07/20 17:42:25;;;;;;;2.35;0.90;;;;;;;23.82;30.56;99512.97;10344286;28;20768;-80
2023/07/20 17:47:32;;;;;;;0.88;0.80;;;;;;;23.81;30.90;99511.31;10342911;28;20088;-80
2023/07/20 17:52:35;;;;;;;1.40;0.90;;;;;;;23.71;31.06;99500.91;10332917;28;20049;-80
2023/07/20 17:57:38;;;;;;;0.60;0.60;;;;;;;23.71;31.00;99506.25;10346003;28;20092;-80
2023/07/20 18:02:42;;;;;;;0.85;0.70;;;;;;;23.66;30.80;99507.81;10345357;28;20499;-80
2023/07/20 18:07:46;;;;;;;1.98;0.80;;;;;;;23.69;31.20;99505.63;10334463;28;20046;-80
2023/07/20 18:12:49;;;;;;;1.15;0.90;;;;;;;23.62;31.37;99515.38;10330114;28;20157;-80
2023/07/20 18:17:52;;;;;;;0.60;0.60;;;;;;;23.57;31.43;99509.78;10317520;28;20046;-80
2023/07/20 18:22:56;;;;;;;0.80;0.80;;;;;;;23.42;31.74;99511.59;10332722;28;20179;-80
2023/07/20 18:28:01;;;;;;;0.88;0.88;;;;;;;23.23;31.87;99512.09;10350758;28;20133;-80
2023/07/20 18:33:03;;;;;;;1.25;0.65;;;;;;;23.04;32.12;99512.63;10347001;28;20349;-80
2023/07/20 18:38:06;;;;;;;1.23;0.80;;;;;;;23.03;32.10;99506.47;10348582;28;20050;-80
2023/07/20 18:43:10;;;;;;;0.90;0.80;;;;;;;23.02;32.54;99517.31;10329261;28;20060;-80
2023/07/20 18:48:13;;;;;;;1.20;0.75;;;;;;;22.89;32.95;99515.25;10318046;28;20054;-81
2023/07/20 18:53:17;;;;;;;0.95;0.77;;;;;;;22.77;33.28;99507.88;10350408;28;20066;-78
2023/07/20 18:58:20;;;;;;;0.80;0.80;;;;;;;22.72;33.55;99512.91;10339858;28;20072;-80
2023/07/20 19:03:24;;;;;;;1.23;0.82;;;;;;;22.69;33.43;99516.75;10339088;28;20049;-79
2023/07/20 19:08:26;;;;;;;0.80;0.80;;;;;;;22.59;33.70;99513.50;10339501;28;20882;-79
2023/07/20 19:13:31;;;;;;;0.70;0.70;;;;;;;22.45;34.10;99516.94;10338404;28;21008;-79
2023/07/20 19:18:39;;;;;;;2.33;0.88;;;;;;;22.36;34.69;99512.66;10371752;28;20060;-82
2023/07/20 19:23:41;;;;;;;1.55;0.52;;;;;;;22.23;35.11;99518.53;10354121;28;20384;-81
2023/07/20 19:28:43;;;;;;;1.05;0.93;;;;;;;22.09;35.37;99515.81;10344064;28;20062;-81
2023/07/20 19:33:45;;;;;;;3.33;0.80;;;;;;;21.87;35.87;99518.22;10358249;28;20927;-81
2023/07/20 19:38:47;;;;;;;10.98;1.30;;;;;;;21.74;36.16;99520.59;10357767;28;20475;-81
2023/07/20 19:43:51;;;;;;;0.82;0.82;;;;;;;21.50;36.55;99523.34;10328238;28;20058;-80
2023/07/20 19:48:54;;;;;;;1.30;0.95;;;;;;;21.46;36.97;99521.19;10342026;28;20069;-81
2023/07/20 19:53:57;;;;;;;0.93;0.82;;;;;;;21.39;37.27;99525.56;10342190;28;20054;-81
2023/07/20 19:59:03;;;;;;;2.60;0.82;;;;;;;21.20;37.90;99532.03;10325086;28;20046;-81
2023/07/20 20:04:06;;;;;;;0.95;0.95;;;;;;;21.05;38.09;99536.38;10350963;28;20049;-80
2023/07/20 20:09:11;;;;;;;2.95;0.98;;;;;;;20.84;38.30;99533.41;10357680;28;20049;-81
2023/07/20 20:14:13;;;;;;;2.55;1.05;;;;;;;20.76;38.85;99536.91;10342351;28;20112;-81
2023/07/20 20:19:15;;;;;;;3.97;1.80;;;;;;;20.65;39.04;99525.75;10339509;28;20050;-81
2023/07/20 20:24:17;;;;;;;1.48;0.90;;;;;;;20.46;39.48;99526.84;10325063;28;20062;-81
2023/07/20 20:29:19;;;;;;;4.82;1.27;;;;;;;20.38;39.65;99526.03;10341575;28;20057;-81
2023/07/20 20:34:21;;;;;;;2.00;1.05;;;;;;;20.27;39.79;99520.03;10340120;28;20061;-81
2023/07/20 20:39:24;;;;;;;1.65;0.90;;;;;;;20.18;39.96;99521.00;10325659;28;20050;-81
2023/07/20 20:44:26;;;;;;;1.55;0.95;;;;;;;20.13;39.99;99522.50;10340251;28;20520;-82
2023/07/20 20:49:31;;;;;;;0.98;0.93;;;;;;;19.99;40.27;99523.94;10335186;28;21255;-80
2023/07/20 20:54:34;;;;;;;1.50;1.00;;;;;;;19.86;40.71;99520.09;10339534;28;20037;-80
2023/07/20 20:59:39;;;;;;;4.55;1.00;;;;;;;19.28;41.30;99525.22;10353512;28;20180;-81
2023/07/20 21:04:41;;;;;;;1.95;1.00;;;;;;;19.24;41.68;99524.72;10337184;28;20084;-79
2023/07/20 21:09:44;;;;;;;2.90;1.00;;;;;;;19.29;41.73;99516.28;10337453;28;20050;-80
2023/07/20 21:14:46;;;;;;;1.60;0.93;;;;;;;19.31;41.91;99522.28;10334369;28;20054;-82
2023/07/20 21:19:49;;;;;;;1.73;0.93;;;;;;;19.22;42.48;99521.38;10333880;28;20046;-81
2023/07/20 21:24:51;;;;;;;1.40;1.10;;;;;;;19.06;42.45;99515.16;10333180;28;20050;-81
2023/07/20 21:29:53;;;;;;;2.47;1.08;;;;;;;18.56;43.28;99528.16;10335939;28;20097;-81
2023/07/20 21:34:55;;;;;;;2.85;0.90;;;;;;;18.44;43.67;99524.88;10337802;28;20116;-81
2023/07/20 21:39:57;;;;;;;1.65;1.20;;;;;;;18.65;43.54;99521.91;10321017;28;20053;-81
2023/07/20 21:44:59;;;;;;;2.50;1.00;;;;;;;18.80;43.50;99525.69;10319106;28;20058;-81
2023/07/20 21:50:01;;;;;;;1.40;1.10;;;;;;;18.76;43.57;99532.28;10337025;28;20046;-81
2023/07/20 21:55:04;;;;;;;1.55;1.05;;;;;;;18.22;44.17;99524.50;10336325;28;20064;-81
2023/07/20 22:00:07;;;;;;;2.70;1.05;;;;;;;18.23;44.14;99526.16;10352610;28;20052;-81
2023/07/20 22:05:09;;;;;;;1.50;1.00;;;;;;;18.28;44.41;99524.72;10351471;28;20050;-80
2023/07/20 22:10:11;;;;;;;2.05;1.27;;;;;;;18.38;44.16;99522.03;10334657;28;20100;-81
2023/07/20 22:15:14;;;;;;;2.50;0.90;;;;;;;18.33;44.70;99511.88;10351873;28;20056;-80
2023/07/20 22:20:19;;;;;;;1.85;1.20;;;;;;;18.17;44.55;99506.38;10319283;28;20057;-80
2023/07/20 22:25:22;;;;;;;1.38;1.00;;;;;;;18.12;44.73;99503.34;10351471;28;20053;-80
2023/07/20 22:30:24;;;;;;;1.38;1.00;;;;;;;18.03;45.11;99514.00;10334672;28;20080;-80
2023/07/20 22:35:26;;;;;;;1.95;1.20;;;;;;;17.95;45.30;99504.16;10333733;28;20080;-80
2023/07/20 22:40:29;;;;;;;3.72;1.30;;;;;;;17.69;45.72;99511.09;10335433;28;20526;-80
2023/07/20 22:45:31;;;;;;;2.20;1.40;;;;;;;17.78;45.69;99513.72;10334754;28;20053;-80
2023/07/20 22:50:33;;;;;;;3.05;1.00;;;;;;;17.88;45.80;99504.88;10350871;28;20072;-81
2023/07/20 22:55:36;;;;;;;1.73;1.00;;;;;;;17.98;45.74;99500.38;10331799;28;20124;-81
2023/07/20 23:00:39;;;;;;;1.25;1.00;;;;;;;17.83;45.53;99502.72;10333899;28;20062;-82
2023/07/20 23:05:41;;;;;;;1.20;1.10;;;;;;;17.75;45.61;99495.50;10331126;28;20046;-82
2023/07/20 23:10:43;;;;;;;1.23;0.98;;;;;;;17.83;45.67;99503.53;10334660;28;20796;-82
2023/07/20 23:15:45;;;;;;;1.40;1.02;;;;;;;17.93;45.53;99503.50;10334903;28;20061;-82
2023/07/20 23:20:47;;;;;;;1.40;1.10;;;;;;;17.89;45.81;99502.13;10333270;28;20045;-81
2023/07/20 23:25:54;;;;;;;1.80;1.20;;;;;;;17.85;45.90;99496.28;10352080;28;20672;-82
2023/07/20 23:30:56;;;;;;;1.33;1.15;;;;;;;17.78;45.82;99489.06;10350493;28;20061;-82
2023/07/20 23:35:59;;;;;;;1.35;1.10;;;;;;;17.67;45.98;99492.75;10350722;28;20050;-82
2023/07/20 23:41:01;;;;;;;1.70;1.00;;;;;;;17.40;46.44;99492.75;10357874;28;20446;-81